• Join FlightAware (Why Join?)
  • Login
  • US Flag 
04:40PM EDT


 

Airport Tracker/Info


-or-


 

Live Flight TrackerFlight Track Log ✈ N559LC ✈ 06-Nov-2013 ✈ KDTW - KSMO

Flight Track Log - Related Links

Times and Time Zones

All times are in EST time to prevent confusion due to time zone crossing. See the N559LC flight status page for this flight to view local times or setup timezone preferences in your user account.

Time Position Orientation Groundspeed Altitude Reporting Facility
EST Latitude Longitude Course Direction KTS MPH feet Rate Location/Type
06:53AM 42.1947 -83.3514 226° Southwest 155 178 1,600  Level Cleveland Center
06:54AM 42.1689 -83.3872 226° Southwest 157 181 4,400 2,580 Climbing Cleveland Center
06:55AM 42.1536 -83.4214 239° Southwest 185 213 5,300 2,160 Climbing Cleveland Center
06:55AM 42.1672 -83.4603 295° West 265 305 6,600 2,820 Climbing Cleveland Center
06:56AM 42.1972 -83.4972 318° Northwest 266 306 8,200 3,000 Climbing Cleveland Center
06:56AM 42.2136 -83.5372 299° West 285 328 9,700 2,280 Climbing Cleveland Center
06:57AM 42.2264 -83.5736 295° West 265 305 10,600 1,380 Climbing Cleveland Center
06:57AM 42.2453 -83.6378 292° West 306 352 11,100 1,440 Climbing Cleveland Center
06:58AM 42.2617 -83.6872 294° West 336 387 12,100 2,160 Climbing Cleveland Center
06:59AM 42.3083 -83.8278 294° West 342 394 14,700 2,400 Climbing Cleveland Center
07:00AM 42.3478 -83.9472 294° West 347 399 17,100 2,280 Climbing Cleveland Center
07:01AM 42.3872 -84.0683 294° West 352 405 19,400 2,040 Climbing Cleveland Center
07:02AM 42.4242 -84.1911 292° West 353 406 21,300 1,980 Climbing Cleveland Center
07:03AM 42.4314 -84.3169 274° West 338 389 23,500 2,160 Climbing Cleveland Center
07:04AM 42.4344 -84.4308 272° West 335 386 25,500 1,500 Climbing Chicago Center
07:05AM 42.4383 -84.5564 272° West 334 384 26,500 1,080 Climbing Chicago Center
07:06AM 42.4406 -84.6889 271° West 350 403 27,700 1,140 Climbing Chicago Center
07:07AM 42.4447 -84.8247 272° West 359 413 28,900 1,740 Climbing Chicago Center
07:08AM 42.4464 -84.9597 271° West 361 415 31,300 1,920 Climbing Chicago Center
07:09AM 42.4494 -85.0828 272° West 336 387 32,800 1,380 Climbing Chicago Center
07:10AM 42.4486 -85.2014 269° West 319 367 34,100 1,260 Climbing Chicago Center
07:11AM 42.4453 -85.3181 268° West 313 360 35,400 960 Climbing Chicago Center
07:12AM 42.4425 -85.4331 268° West 307 353 36,100 600 Climbing Chicago Center
07:13AM 42.4386 -85.5756 268° West 314 361 36,700 720 Climbing Chicago Center
07:14AM 42.4361 -85.6942 268° West 317 365 37,600 780 Climbing Chicago Center
07:15AM 42.4322 -85.8108 267° West 312 359 38,300 720 Climbing Chicago Center
07:16AM 42.4294 -85.9292 268° West 313 360 39,100 720 Climbing Chicago Center
07:17AM 42.4258 -86.0508 268° West 320 368 39,800 420 Climbing Chicago Center
07:18AM 42.4219 -86.1758 268° West 329 379 40,000 60 Climbing Chicago Center
07:19AM 42.4175 -86.3056 267° West 340 391 40,000  Level Chicago Center
07:20AM 42.4131 -86.4361 267° West 345 397 40,000  Level Chicago Center
07:21AM 42.4089 -86.5672 268° West 348 400 40,000  Level Chicago Center
07:22AM 42.4072 -86.6864 269° West 342 394 40,000  Level Chicago Center
07:23AM 42.4019 -86.8408 267° West 344 396 40,000  Level Chicago Center
07:24AM 42.3967 -86.9681 267° West 343 395 40,000  Level Chicago Center
07:25AM 42.3906 -87.0942 266° West 339 390 40,000  Level Chicago Center
07:26AM 42.3858 -87.2222 267° West 342 394 40,000  Level Chicago Center
07:27AM 42.3817 -87.3497 268° West 342 394 40,000  Level Chicago Center
07:28AM 42.3758 -87.4778 267° West 344 396 40,000  Level Chicago Center
07:29AM 42.3711 -87.6106 267° West 353 406 40,000  Level Chicago Center
07:30AM 42.3650 -87.7411 266° West 351 404 40,000  Level Chicago Center
07:31AM 42.3589 -87.8842 267° West 352 405 40,000  Level Chicago Center
07:32AM 42.3531 -88.0156 267° West 351 404 40,000  Level Chicago Center
07:33AM 42.3458 -88.1483 266° West 353 406 40,000  Level Chicago Center
07:34AM 42.3397 -88.2806 266° West 352 405 40,000  Level Chicago Center
07:35AM 42.3333 -88.4122 266° West 350 403 40,000  Level Chicago Center
07:36AM 42.3272 -88.5522 267° West 351 404 40,000  Level Chicago Center
07:37AM 42.3206 -88.6825 266° West 350 403 40,000  Level Chicago Center
07:38AM 42.3125 -88.8347 266° West 355 409 40,000  Level Chicago Center
07:40AM 42.3053 -88.9692 266° West 357 411 40,000  Level Chicago Center
07:41AM 42.2986 -89.1031 266° West 358 412 40,000  Level Chicago Center
07:42AM 42.2906 -89.2406 266° West 364 419 40,000  Level Chicago Center
07:43AM 42.2839 -89.3733 266° West 357 411 40,000  Level Chicago Center
07:44AM 42.2750 -89.5081 265° West 359 413 40,000  Level Chicago Center
07:45AM 42.2675 -89.6442 266° West 363 418 40,000 120 Level Chicago Center
07:46AM 42.2589 -89.8061 266° West 362 417 40,300 420 Climbing Chicago Center
07:47AM 42.2511 -89.9167 265° West 356 410 40,900 540 Climbing Chicago Center
07:48AM 42.2417 -90.0736 265° West 354 407 41,500 540 Climbing Chicago Center
07:49AM 42.2331 -90.2050 265° West 354 407 42,100 480 Climbing Chicago Center
07:50AM 42.2244 -90.3372 265° West 357 411 42,600 420 Climbing Chicago Center
07:51AM 42.2161 -90.4700 265° West 357 411 43,000 180 Climbing Chicago Center
07:52AM 42.2067 -90.6044 265° West 362 417 43,000  Level Chicago Center
07:53AM 42.1975 -90.7444 265° West 373 429 43,000  Level Chicago Center
07:54AM 42.1856 -90.8856 264° West 380 437 43,000  Level Chicago Center
07:55AM 42.1747 -91.0514 265° West 376 433 43,000  Level Chicago Center
07:56AM 42.1633 -91.1906 264° West 375 432 43,000  Level Chicago Center
07:57AM 42.1539 -91.3303 265° West 376 433 43,000  Level Chicago Center
07:58AM 42.1431 -91.4669 264° West 372 428 43,000  Level Chicago Center
07:59AM 42.1336 -91.6058 265° West 372 428 43,000  Level Chicago Center
08:00AM 42.1214 -91.7461 263° West 375 432 43,000  Level Chicago Center
08:01AM 42.1106 -91.8875 264° West 378 435 43,000  Level Chicago Center
08:02AM 42.0969 -92.0558 264° West 376 433 43,000  Level Chicago Center
08:03AM 42.0856 -92.1944 264° West 376 433 43,000  Level Chicago Center
08:04AM 42.0744 -92.3328 264° West 374 430 43,000  Level Chicago Center
08:05AM 42.0631 -92.4725 264° West 376 433 43,000  Level Chicago Center
08:06AM 42.0506 -92.6103 263° West 376 433 43,000  Level Chicago Center
08:07AM 42.0378 -92.7500 263° West 377 434 43,000  Level Chicago Center
08:08AM 42.0233 -92.9208 264° West 382 440 43,000  Level Minneapolis Center
08:09AM 42.0106 -93.0606 263° West 381 438 43,000  Level Minneapolis Center
08:10AM 41.9981 -93.2014 263° West 381 438 43,000  Level Minneapolis Center
08:11AM 41.9850 -93.3442 263° West 385 443 43,000  Level Minneapolis Center
08:12AM 41.9686 -93.5122 263° West 383 441 43,000  Level Minneapolis Center
08:13AM 41.9556 -93.6553 263° West 387 445 43,000  Level Minneapolis Center
08:14AM 41.9436 -93.7775 263° West 388 447 43,000  Level Minneapolis Center
08:16AM 41.9286 -93.9428 263° West 384 442 43,000  Level Minneapolis Center
08:17AM 41.9136 -94.0839 262° West 383 441 43,000  Level Minneapolis Center
08:18AM 41.9003 -94.2269 263° West 387 445 43,000  Level Minneapolis Center
08:19AM 41.8850 -94.3719 262° West 390 449 43,000  Level Minneapolis Center
08:20AM 41.8686 -94.5136 261° West 387 445 43,000  Level Minneapolis Center
08:21AM 41.8528 -94.6864 263° West 389 448 43,000  Level Minneapolis Center
08:22AM 41.8378 -94.8300 262° West 390 449 43,000  Level Minneapolis Center
08:23AM 41.8225 -94.9731 262° West 389 448 43,000  Level Minneapolis Center
08:24AM 41.8072 -95.1153 262° West 387 445 43,000  Level Minneapolis Center
08:25AM 41.7906 -95.2611 261° West 393 452 43,000  Level Minneapolis Center
08:26AM 41.7739 -95.4056 261° West 393 452 43,000  Level Minneapolis Center
08:27AM 41.7583 -95.5519 262° West 397 457 43,000  Level Minneapolis Center
08:28AM 41.7381 -95.7272 261° West 399 459 43,000  Level Minneapolis Center
08:29AM 41.7217 -95.8703 261° West 394 453 43,000  Level Minneapolis Center
08:30AM 41.7056 -96.0142 262° West 394 453 43,000  Level Minneapolis Center
08:31AM 41.6889 -96.1575 261° West 394 453 43,000  Level Minneapolis Center
08:32AM 41.6719 -96.2969 261° West 387 445 43,000  Level Minneapolis Center
08:33AM 41.6553 -96.4353 261° West 380 437 43,000  Level Minneapolis Center
08:34AM 41.6358 -96.5986 261° West 374 430 43,000  Level Minneapolis Center
08:35AM 41.6192 -96.7336 261° West 371 427 43,000  Level Minneapolis Center
08:36AM 41.6014 -96.8694 260° West 371 427 43,000  Level Minneapolis Center
08:37AM 41.5856 -97.0056 261° West 373 429 43,000  Level Minneapolis Center
08:38AM 41.5667 -97.1464 260° West 381 438 43,000  Level Minneapolis Center
08:39AM 41.5492 -97.2858 261° West 383 441 43,000  Level Minneapolis Center
08:40AM 41.5306 -97.4272 260° West 387 445 43,000  Level Minneapolis Center
08:41AM 41.5119 -97.5703 260° West 390 449 43,000  Level Minneapolis Center
08:42AM 41.4883 -97.7433 260° West 394 453 43,000  Level Minneapolis Center
08:43AM 41.4694 -97.8881 260° West 397 457 43,000  Level Minneapolis Center
08:44AM 41.4497 -98.0339 260° West 399 459 43,000  Level Minneapolis Center
08:45AM 41.4322 -98.1647 260° West 397 457 43,000  Level Minneapolis Center
08:46AM 41.4083 -98.3381 260° West 397 457 43,000  Level Minneapolis Center
08:47AM 41.3908 -98.4653 260° West 396 456 43,000  Level Minneapolis Center
08:48AM 41.3706 -98.6097 259° West 396 456 43,000  Level Minneapolis Center
08:49AM 41.3503 -98.7544 259° West 397 457 43,000  Level Minneapolis Center
08:50AM 41.3267 -98.9269 260° West 396 456 43,000  Level Minneapolis Center
08:51AM 41.3039 -99.0722 258° West 398 458 43,000  Level Minneapolis Center
08:52AM 41.2831 -99.2247 260° West 399 459 43,000  Level Minneapolis Center
08:54AM 41.2614 -99.3686 259° West 399 459 43,000  Level Minneapolis Center
08:55AM 41.2411 -99.5139 260° West 400 460 43,000  Level Minneapolis Center
08:56AM 41.2186 -99.6606 259° West 403 464 43,000  Level Minneapolis Center
08:57AM 41.1972 -99.8064 259° West 405 466 43,000  Level Minneapolis Center
08:58AM 41.1753 -99.9517 259° West 402 463 43,000  Level Minneapolis Center
08:59AM 41.1528 -100.0972 258° West 402 463 43,000  Level Minneapolis Center
09:00AM 41.1261 -100.2706 259° West 400 460 43,000  Level Minneapolis Center
09:01AM 41.1033 -100.4150 258° West 400 460 43,000  Level Minneapolis Center
09:02AM 41.0808 -100.5592 258° West 400 460 43,000  Level Minneapolis Center
09:03AM 41.0464 -100.7522 257° West 404 465 43,000  Level Denver Center
09:04AM 41.0044 -100.8814 247° West 404 465 43,000  Level Denver Center
09:05AM 40.9544 -101.0319 246° West 405 466 43,000  Level Denver Center
09:06AM 40.9114 -101.1619 246° West 406 467 43,000  Level Denver Center
09:07AM 40.8678 -101.2933 246° West 409 471 43,000  Level Denver Center
09:08AM 40.8175 -101.4456 246° West 407 468 43,000  Level Denver Center
09:09AM 40.7739 -101.5794 247° West 415 478 43,000  Level Denver Center
09:10AM 40.7272 -101.7119 245° Southwest 418 481 43,000  Level Denver Center
09:11AM 40.6767 -101.8644 246° West 407 468 43,000  Level Denver Center
09:12AM 40.6314 -101.9914 245° Southwest 402 463 43,000  Level Denver Center
09:13AM 40.5800 -102.1439 246° West 409 471 43,000  Level Denver Center
09:14AM 40.5350 -102.2717 245° Southwest 405 466 43,000  Level Denver Center
09:15AM 40.4914 -102.3997 246° West 401 461 43,000  Level Denver Center
09:16AM 40.4394 -102.5489 245° Southwest 404 465 43,000  Level Denver Center
09:17AM 40.3953 -102.6722 245° Southwest 407 468 43,000  Level Denver Center
09:18AM 40.3494 -102.8069 246° West 407 468 43,000  Level Denver Center
09:19AM 40.3017 -102.9411 245° Southwest 408 470 43,000  Level Denver Center
09:20AM 40.2539 -103.0769 245° Southwest 411 473 43,000  Level Denver Center
09:21AM 40.2050 -103.2128 245° Southwest 413 475 43,000  Level Denver Center
09:22AM 40.1564 -103.3481 245° Southwest 412 474 43,000  Level Denver Center
09:23AM 40.0986 -103.5094 245° Southwest 410 472 43,000  Level Denver Center
09:24AM 40.0503 -103.6419 245° Southwest 407 468 43,000  Level Denver Center
09:25AM 40.0017 -103.7758 245° Southwest 414 476 43,000  Level Denver Center
09:26AM 39.9536 -103.9106 245° Southwest 412 474 43,000  Level Denver Center
09:27AM 39.9061 -104.0406 245° Southwest 399 459 43,000  Level Denver Center
09:28AM 39.8578 -104.1719 244° Southwest 402 463 43,000  Level Denver Center
09:29AM 39.8100 -104.3003 244° Southwest 398 458 43,000  Level Denver Center
09:30AM 39.7606 -104.4308 244° Southwest 400 460 43,000  Level Denver Center
09:31AM 39.7119 -104.5625 244° Southwest 404 465 43,000  Level Denver Center
09:33AM 39.6467 -104.7092 240° Southwest 420 483 43,000  Level Denver Center
09:34AM 39.5867 -104.8331 238° Southwest 407 468 43,000  Level Denver Center
09:35AM 39.5242 -104.9553 236° Southwest 409 471 43,000  Level Denver Center
09:36AM 39.4622 -105.0806 237° Southwest 412 474 43,000  Level Denver Center
09:37AM 39.4000 -105.2053 237° Southwest 412 474 43,000  Level Denver Center
09:38AM 39.3394 -105.3258 237° Southwest 393 452 43,000  Level Denver Center
09:39AM 39.2786 -105.4436 236° Southwest 394 453 43,000  Level Denver Center
09:40AM 39.2203 -105.5617 237° Southwest 391 450 43,000  Level Denver Center
09:41AM 39.1592 -105.6806 236° Southwest 396 456 43,000  Level Denver Center
09:42AM 39.0850 -105.8244 236° Southwest 401 461 43,000  Level Denver Center
09:43AM 39.0236 -105.9472 237° Southwest 408 470 43,000  Level Denver Center
09:44AM 38.9583 -106.0717 236° Southwest 417 480 43,000  Level Denver Center
09:45AM 38.9003 -106.1853 237° Southwest 415 478 43,000  Level Denver Center
09:46AM 38.8367 -106.3064 236° Southwest 421 484 43,000  Level Denver Center
09:47AM 38.7697 -106.4344 236° Southwest 427 491 43,000  Level Denver Center
09:48AM 38.7028 -106.5622 236° Southwest 429 494 43,000  Level Denver Center
09:49AM 38.6372 -106.6900 237° Southwest 429 494 43,000  Level Denver Center
09:50AM 38.5894 -106.8283 246° West 420 483 43,000  Level Denver Center
09:51AM 38.5428 -106.9661 247° West 420 483 43,000  Level Denver Center
09:52AM 38.4867 -107.1322 247° West 421 484 43,000  Level Denver Center
09:53AM 38.4433 -107.2633 247° West 427 491 43,000  Level Denver Center
09:54AM 38.3914 -107.4156 247° West 420 483 43,000  Level Denver Center
09:55AM 38.3453 -107.5486 246° West 426 490 43,000  Level Denver Center
09:56AM 38.3006 -107.6797 247° West 423 487 43,000  Level Denver Center
09:57AM 38.2469 -107.8342 246° West 425 489 43,000  Level Denver Center
09:58AM 38.2019 -107.9664 247° West 425 489 43,000  Level Denver Center
09:59AM 38.1556 -108.0958 246° West 421 484 43,000  Level Denver Center
10:00AM 38.1025 -108.2475 246° West 421 484 43,000  Level Denver Center
10:01AM 38.0544 -108.3861 246° West 419 482 43,000  Level Denver Center
10:02AM 38.0083 -108.5111 245° Southwest 412 474 43,000  Level Denver Center
10:03AM 37.9625 -108.6444 246° West 423 487 43,000  Level Denver Center
10:04AM 37.9083 -108.7950 246° West 422 486 43,000  Level Denver Center
10:05AM 37.8631 -108.9203 245° Southwest 415 478 43,000  Level Denver Center
10:06AM 37.8097 -109.0683 246° West 414 476 43,000  Level Denver Center
10:07AM 37.7639 -109.1944 245° Southwest 412 474 43,000  Level Denver Center
10:08AM 37.7183 -109.3208 246° West 412 474 43,000  Level Denver Center
10:09AM 37.6644 -109.4689 245° Southwest 416 479 43,000  Level Denver Center
10:10AM 37.6183 -109.5942 245° Southwest 413 475 43,000  Level Denver Center
10:11AM 37.5644 -109.7386 245° Southwest 410 472 43,000  Level Denver Center
10:12AM 37.5181 -109.8636 245° Southwest 412 474 43,000  Level Denver Center
10:13AM 37.4714 -109.9883 245° Southwest 411 473 43,000  Level Denver Center
10:14AM 37.4178 -110.1358 245° Southwest 415 478 43,000  Level Denver Center
10:15AM 37.3650 -110.2728 244° Southwest 419 482 43,000  Level Denver Center
10:16AM 37.3161 -110.4031 245° Southwest 415 478 43,000  Level Denver Center
10:17AM 37.2667 -110.5350 245° Southwest 418 481 43,000  Level Denver Center
10:18AM 37.2167 -110.6658 244° Southwest 418 481 43,000  Level Denver Center
10:19AM 37.1658 -110.7972 244° Southwest 420 483 43,000  Level Denver Center
10:20AM 37.1156 -110.9294 245° Southwest 420 483 43,000  Level Denver Center
10:21AM 37.0644 -111.0614 244° Southwest 421 484 43,000  Level Denver Center
10:22AM 37.0028 -111.2217 244° Southwest 425 489 43,000  Level Denver Center
10:24AM 36.9508 -111.3531 244° Southwest 422 486 43,000  Level Denver Center
10:25AM 36.8983 -111.4875 244° Southwest 427 491 43,000  Level Denver Center
10:26AM 36.8453 -111.6200 243° Southwest 428 493 43,000  Level Denver Center
10:27AM 36.7944 -111.7517 244° Southwest 425 489 43,000  Level Denver Center
10:28AM 36.7428 -111.8836 244° Southwest 422 486 43,000  Level Denver Center
10:29AM 36.6911 -112.0142 244° Southwest 421 484 43,000  Level Denver Center
10:29AM 36.6503 -112.1183 244° Southwest 424 488 43,000  Level Los Angeles Center
10:30AM 36.5969 -112.2494 243° Southwest 424 488 43,000  Level Los Angeles Center
10:31AM 36.5447 -112.3811 244° Southwest 425 489 43,000  Level Los Angeles Center
10:32AM 36.4919 -112.5128 244° Southwest 425 489 43,000  Level Los Angeles Center
10:33AM 36.4369 -112.6456 243° Southwest 429 494 43,000  Level Los Angeles Center
10:34AM 36.3833 -112.7783 243° Southwest 430 495 43,000  Level Los Angeles Center
10:36AM 36.3183 -112.9378 243° Southwest 431 496 43,000  Level Los Angeles Center
10:37AM 36.2631 -113.0719 243° Southwest 435 501 43,000  Level Los Angeles Center
10:38AM 36.2081 -113.2056 243° Southwest 436 502 43,000  Level Los Angeles Center
10:39AM 36.1481 -113.3481 242° Southwest 439 505 43,000 -60 Level Los Angeles Center
10:40AM 36.0819 -113.5092 243° Southwest 439 505 42,900 -600 Descending Los Angeles Center
10:41AM 36.0261 -113.6439 243° Southwest 439 505 41,700 -1,320 Descending Los Angeles Center
10:42AM 35.9703 -113.7744 242° Southwest 432 497 40,200 -1,500 Descending Los Angeles Center
10:43AM 35.9192 -113.9000 243° Southwest 416 479 38,700 -1,080 Descending Los Angeles Center
10:44AM 35.8653 -114.0292 243° Southwest 419 482 38,000 -900 Descending Los Angeles Center
10:45AM 35.7944 -114.1922 242° Southwest 443 510 36,900 -1,260 Descending Los Angeles Center
10:46AM 35.7392 -114.3247 243° Southwest 439 505 35,400 -1,440 Descending Los Angeles Center
10:47AM 35.6822 -114.4586 242° Southwest 439 505 34,000 -720 Descending Los Angeles Center
10:48AM 35.6231 -114.5964 242° Southwest 449 517 34,000  Level Los Angeles Center
10:49AM 35.5628 -114.7347 242° Southwest 455 524 34,000  Level Los Angeles Center
10:50AM 35.5039 -114.8706 242° Southwest 452 520 34,000  Level Los Angeles Center
10:51AM 35.4433 -115.0083 242° Southwest 455 524 34,000  Level Los Angeles Center
10:52AM 35.3722 -115.1717 242° Southwest 452 520 34,000  Level Los Angeles Center
10:53AM 35.3131 -115.3081 242° Southwest 452 520 34,000  Level Los Angeles Center
10:54AM 35.2536 -115.4425 242° Southwest 449 517 34,000  Level Los Angeles Center
10:55AM 35.2014 -115.5617 242° Southwest 450 518 34,000  Level Los Angeles Center
10:56AM 35.1300 -115.7250 242° Southwest 455 524 34,000 -180 Level Los Angeles Center
10:57AM 35.0689 -115.8600 241° Southwest 454 522 33,700 -1,260 Descending Los Angeles Center
10:58AM 35.0081 -115.9969 242° Southwest 457 526 31,500 -2,280 Descending Los Angeles Center
10:59AM 34.9461 -116.1372 242° Southwest 465 535 29,100 -2,340 Descending Los Angeles Center
11:01AM 34.8800 -116.2797 241° Southwest 476 548 26,700 -2,340 Descending Los Angeles Center
11:02AM 34.8147 -116.4214 241° Southwest 480 552 24,300 -1,680 Descending Los Angeles Center
11:03AM 34.7869 -116.5589 256° West 445 512 23,300 -1,380 Descending Los Angeles Center
11:04AM 34.7719 -116.7242 264° West 414 476 21,500 -1,620 Descending Los Angeles Center
11:05AM 34.7581 -116.8592 263° West 405 466 20,000 -1,500 Descending Los Angeles Center
11:06AM 34.7442 -116.9908 263° West 396 456 18,500 -1,320 Descending Los Angeles Center
11:07AM 34.7314 -117.1214 263° West 390 449 17,300 -1,200 Descending Los Angeles Center
11:08AM 34.7183 -117.2494 263° West 382 440 16,100 -1,440 Descending Los Angeles Center
11:09AM 34.7050 -117.3772 263° West 380 437 14,400 -1,740 Descending Los Angeles Center
11:10AM 34.6906 -117.5039 262° West 377 434 12,600 -1,140 Descending Los Angeles Center
11:11AM 34.6761 -117.6489 263° West 358 412 12,100 -300 Descending Los Angeles Center
11:12AM 34.6633 -117.7711 263° West 362 417 12,100  Level Los Angeles Center
11:13AM 34.6503 -117.8936 263° West 367 422 12,100 -60 Level Los Angeles Center
11:14AM 34.6367 -118.0147 262° West 363 418 12,000 -1,020 Descending Los Angeles Center
11:15AM 34.5953 -118.1200 244° Southwest 346 398 10,000 -1,860 Descending Los Angeles Center
11:16AM 34.5386 -118.2169 235° Southwest 320 368 8,200 -960 Descending Los Angeles Center
11:17AM 34.4900 -118.2919 232° Southwest 288 331 8,100  Descending Los Angeles Center
11:18AM 34.4203 -118.3300 204° Southwest 301 346 8,200 -540 Climbing Los Angeles Center
11:19AM 34.3453 -118.3261 178° South 274 315 7,100 -600 Descending Los Angeles Center
11:20AM 34.2536 -118.3172 175° South 273 314 7,000 -480 Descending Los Angeles Center
11:21AM 34.1894 -118.3114 176° South 243 280 6,200 -1,140 Descending Los Angeles Center
11:22AM 34.1350 -118.3178 186° South 205 236 4,700 -1,620 Descending Los Angeles Center
11:23AM 34.0961 -118.3544 218° Southwest 189 217 2,900 -1,440 Descending Los Angeles Center
11:24AM 34.0653 -118.3950 227° Southwest 174 200 1,800 -1,020 Descending Los Angeles Center
11:25AM 34.0297 -118.4372 225° Southwest 160 184 900 -780 Descending Los Angeles Center
11:26AM 34.0022 -118.4683 223° Southwest 156 180 200 -720 Descending Los Angeles Center
11:28AM 34.0000 -118.4500 90° East  Level FlightAware Approximate
11:35AM 34.0158 -118.4513 90° East  Level Estimated